Time;durP1;ratioP1;P1;durP2;ratioP2;P2;SDS_P1;SDS_P2;PMS_P1;PMS_P2;Temp;Humidity;BMP_temperature;BMP_pressure;BME280_temperature;BME280_humidity;BME280_pressure;Samples;Min_cycle;Max_cycle;Signal;HPM_P1;HPM_P2
2023/12/20 00:02:39;;;;;;;19.67;9.02;;;;;;;5.35;100.00;100130.84;10493191;28;20620;-81
2023/12/20 00:07:42;;;;;;;14.70;7.85;;;;;;;5.42;100.00;100137.47;10500878;28;20045;-81
2023/12/20 00:12:47;;;;;;;19.35;8.32;;;;;;;5.30;100.00;100140.91;10483825;28;20044;-82
2023/12/20 00:17:50;;;;;;;15.63;7.53;;;;;;;4.74;100.00;100151.41;10493164;28;20045;-81
2023/12/20 00:22:53;;;;;;;17.98;7.07;;;;;;;5.18;100.00;100155.84;10478926;28;20144;-82
2023/12/20 00:27:57;;;;;;;15.00;7.38;;;;;;;5.44;100.00;100162.22;10476770;28;20420;-80
2023/12/20 00:33:00;;;;;;;18.55;6.95;;;;;;;4.86;100.00;100165.78;10491251;28;20049;-78
2023/12/20 00:38:05;;;;;;;14.50;7.07;;;;;;;5.26;100.00;100163.34;10457894;28;20076;-79
2023/12/20 00:43:09;;;;;;;15.27;7.65;;;;;;;4.96;100.00;100160.75;10461104;28;20049;-80
2023/12/20 00:48:12;;;;;;;14.95;8.18;;;;;;;4.93;100.00;100158.28;10487025;28;20044;-80
2023/12/20 00:53:15;;;;;;;16.77;6.63;;;;;;;5.02;100.00;100150.63;10463602;28;20045;-82
2023/12/20 00:58:19;;;;;;;16.45;5.72;;;;;;;4.45;100.00;100163.81;10491857;28;20476;-82
2023/12/20 01:03:23;;;;;;;13.45;5.35;;;;;;;4.81;100.00;100168.72;10491291;28;20051;-79
2023/12/20 01:08:26;;;;;;;16.55;4.45;;;;;;;4.96;100.00;100164.25;10476563;28;20083;-82
2023/12/20 01:13:30;;;;;;;13.70;4.75;;;;;;;4.99;100.00;100169.47;10464168;28;20083;-79
2023/12/20 01:18:33;;;;;;;9.43;4.38;;;;;;;5.10;100.00;100170.59;10459444;28;20040;-79
2023/12/20 01:23:36;;;;;;;11.02;4.15;;;;;;;4.98;100.00;100167.69;10474100;28;20056;-80
2023/12/20 01:28:40;;;;;;;13.85;6.28;;;;;;;4.55;100.00;100172.09;10463515;28;20057;-78
2023/12/20 01:33:43;;;;;;;12.23;4.18;;;;;;;4.68;100.00;100172.22;10446195;28;20048;-80
2023/12/20 01:38:46;;;;;;;12.30;3.88;;;;;;;4.50;100.00;100182.13;10472777;28;20037;-79
2023/12/20 01:43:52;;;;;;;9.10;4.15;;;;;;;4.54;100.00;100181.03;10488952;28;20057;-78
2023/12/20 01:48:56;;;;;;;11.57;3.22;;;;;;;4.12;100.00;100190.56;10490712;28;20043;-77
2023/12/20 01:54:00;;;;;;;9.68;3.45;;;;;;;4.68;100.00;100177.53;10473938;28;20102;-79
2023/12/20 01:59:04;;;;;;;11.43;3.60;;;;;;;4.58;100.00;100183.41;10490214;28;20048;-79
2023/12/20 02:04:08;;;;;;;6.15;3.13;;;;;;;4.78;100.00;100168.91;10491493;28;20137;-79
2023/12/20 02:09:11;;;;;;;7.72;2.38;;;;;;;4.39;100.00;100164.19;10457693;28;20045;-80
2023/12/20 02:14:15;;;;;;;11.20;3.95;;;;;;;4.62;100.00;100168.97;10482830;28;20087;-79
2023/12/20 02:19:18;;;;;;;11.00;3.33;;;;;;;4.18;100.00;100151.16;10509805;28;20108;-79
2023/12/20 02:24:23;;;;;;;11.57;3.15;;;;;;;4.53;100.00;100147.41;10487443;28;20432;-81
2023/12/20 02:29:26;;;;;;;13.82;4.32;;;;;;;4.37;100.00;100152.75;10486906;28;20041;-82
2023/12/20 02:34:30;;;;;;;8.45;3.50;;;;;;;4.10;100.00;100163.19;10461614;28;20052;-81
2023/12/20 02:39:34;;;;;;;11.57;4.30;;;;;;;4.06;100.00;100165.19;10473927;28;20141;-81
2023/12/20 02:44:37;;;;;;;8.02;2.28;;;;;;;4.08;100.00;100159.75;10490391;28;20045;-80
2023/12/20 02:49:40;;;;;;;13.43;4.43;;;;;;;4.11;100.00;100146.28;10479787;28;20067;-80
2023/12/20 02:54:44;;;;;;;13.93;3.00;;;;;;;4.14;100.00;100147.00;10486267;28;20040;-79
2023/12/20 02:59:47;;;;;;;9.23;3.33;;;;;;;4.10;100.00;100142.78;10473272;28;20048;-79
2023/12/20 03:04:50;;;;;;;11.77;3.55;;;;;;;4.45;100.00;100128.38;10470808;28;20584;-80
2023/12/20 03:09:55;;;;;;;18.80;3.95;;;;;;;4.17;100.00;100140.66;10483404;28;20561;-80
2023/12/20 03:15:17;;;;;;;12.75;3.78;;;;;;;4.28;100.00;100134.66;10498003;28;20096;-79
2023/12/20 03:20:20;;;;;;;11.88;4.25;;;;;;;4.54;100.00;100147.28;10500062;28;20037;-79
2023/12/20 03:25:24;;;;;;;9.65;3.97;;;;;;;4.62;100.00;100146.84;10485288;28;20066;-80
2023/12/20 03:30:27;;;;;;;19.75;3.78;;;;;;;4.29;100.00;100141.72;10495699;28;20128;-77
2023/12/20 03:35:30;;;;;;;13.32;5.25;;;;;;;4.43;100.00;100141.75;10498680;28;20090;-80
2023/12/20 03:40:35;;;;;;;18.42;5.50;;;;;;;4.54;100.00;100126.00;10485810;28;20055;-78
2023/12/20 03:45:38;;;;;;;12.20;4.75;;;;;;;4.10;100.00;100128.63;10452624;28;20068;-75
2023/12/20 03:50:41;;;;;;;15.65;5.38;;;;;;;4.58;100.00;100114.25;10464799;28;20040;-80
2023/12/20 03:55:45;;;;;;;10.25;4.38;;;;;;;4.51;100.00;100118.22;10483380;28;20734;-79
2023/12/20 04:00:48;;;;;;;20.55;5.78;;;;;;;4.18;100.00;100100.66;10470115;28;20487;-78
2023/12/20 04:05:51;;;;;;;10.15;3.30;;;;;;;4.21;100.00;100117.38;10465780;28;20052;-81
2023/12/20 04:10:56;;;;;;;18.75;7.05;;;;;;;4.39;100.00;100100.34;10479082;28;20711;-79
2023/12/20 04:15:58;;;;;;;33.70;4.43;;;;;;;4.11;100.00;100109.06;10492032;28;20147;-79
2023/12/20 04:21:01;;;;;;;13.13;6.43;;;;;;;4.23;100.00;100103.06;10496119;28;20053;-79
2023/12/20 04:26:06;;;;;;;13.40;6.13;;;;;;;4.58;100.00;100100.94;10483379;28;20056;-78
2023/12/20 04:31:09;;;;;;;19.75;6.68;;;;;;;4.33;100.00;100116.66;10495876;28;20033;-80
2023/12/20 04:36:12;;;;;;;16.48;6.63;;;;;;;4.37;100.00;100120.84;10459780;28;20052;-79
2023/12/20 04:41:18;;;;;;;17.40;6.13;;;;;;;4.57;100.00;100115.19;10477531;28;20048;-80
2023/12/20 04:46:21;;;;;;;18.10;6.50;;;;;;;4.46;100.00;100109.66;10490663;28;20087;-79
2023/12/20 04:51:24;;;;;;;21.42;6.00;;;;;;;4.25;100.00;100105.59;10492584;28;20858;-81
2023/12/20 04:56:29;;;;;;;16.88;6.05;;;;;;;4.24;100.00;100094.13;10475270;28;20068;-79
2023/12/20 05:01:31;;;;;;;14.93;4.63;;;;;;;4.37;100.00;100110.22;10492182;28;20356;-79
2023/12/20 05:06:34;;;;;;;10.50;4.78;;;;;;;4.26;100.00;100094.88;10497950;28;20072;-80
2023/12/20 05:11:39;;;;;;;17.95;4.85;;;;;;;4.60;100.00;100099.03;10484932;28;20168;-81
2023/12/20 05:16:42;;;;;;;14.48;4.22;;;;;;;4.35;100.00;100099.66;10466667;28;20045;-80
2023/12/20 05:21:45;;;;;;;16.48;4.40;;;;;;;4.28;100.00;100090.34;10463577;28;20048;-78
2023/12/20 05:26:49;;;;;;;13.70;4.13;;;;;;;4.49;100.00;100085.53;10474890;28;20064;-80
2023/12/20 05:31:55;;;;;;;12.50;5.28;;;;;;;4.20;100.00;100092.59;10488082;28;20166;-78
2023/12/20 05:36:59;;;;;;;13.18;4.13;;;;;;;4.21;100.00;100090.78;10495048;28;20396;-79
2023/12/20 05:42:04;;;;;;;18.05;5.35;;;;;;;3.87;100.00;100077.69;10505380;28;20044;-78
2023/12/20 05:47:07;;;;;;;22.65;5.63;;;;;;;4.38;100.00;100093.28;10487478;28;20392;-80
2023/12/20 05:52:10;;;;;;;22.10;6.13;;;;;;;4.17;100.00;100096.28;10464014;28;20055;-79
2023/12/20 05:57:14;;;;;;;29.27;6.45;;;;;;;3.72;100.00;100092.69;10482445;28;20500;-78
2023/12/20 06:02:18;;;;;;;29.90;9.50;;;;;;;4.00;100.00;100099.06;10466767;28;20139;-79
2023/12/20 06:07:22;;;;;;;24.55;5.60;;;;;;;4.04;100.00;100095.31;10443424;28;20056;-79
2023/12/20 06:12:26;;;;;;;23.45;5.82;;;;;;;3.98;100.00;100097.44;10473399;28;20381;-80
2023/12/20 06:17:30;;;;;;;15.13;5.80;;;;;;;3.94;100.00;100102.94;10484892;28;20396;-80
2023/12/20 06:22:33;;;;;;;29.10;7.43;;;;;;;4.08;100.00;100102.13;10487163;28;20041;-81
2023/12/20 06:27:37;;;;;;;18.52;6.68;;;;;;;4.27;100.00;100096.59;10486064;28;20071;-79
2023/12/20 06:32:42;;;;;;;19.17;4.25;;;;;;;3.88;100.00;100105.09;10467994;28;20037;-77
2023/12/20 06:37:45;;;;;;;18.45;5.10;;;;;;;4.08;100.00;100111.91;10459093;28;20045;-79
2023/12/20 06:42:49;;;;;;;22.88;5.90;;;;;;;4.16;100.00;100097.22;10510111;28;20116;-79
2023/12/20 06:48:07;;;;;;;12.27;4.25;;;;;;;4.01;100.00;100103.47;10476672;28;20049;-79
2023/12/20 06:53:10;;;;;;;14.15;4.40;;;;;;;3.80;100.00;100076.31;10494087;28;20040;-80
2023/12/20 06:58:14;;;;;;;15.25;5.05;;;;;;;3.98;100.00;100090.34;10482156;28;20044;-77
2023/12/20 07:03:17;;;;;;;20.20;6.60;;;;;;;3.88;100.00;100105.09;10467054;28;20052;-78
2023/12/20 07:08:20;;;;;;;22.95;6.65;;;;;;;3.91;100.00;100094.28;10493585;28;20520;-78
2023/12/20 07:13:25;;;;;;;26.65;7.05;;;;;;;4.24;100.00;100091.47;10481845;28;20067;-80
2023/12/20 07:18:28;;;;;;;30.13;7.50;;;;;;;4.35;100.00;100089.00;10466726;28;20099;-80
2023/12/20 07:23:31;;;;;;;24.88;8.20;;;;;;;4.43;100.00;100087.72;10441674;28;20072;-80
2023/12/20 07:28:35;;;;;;;27.58;5.47;;;;;;;4.17;100.00;100082.16;10469287;28;20400;-80
2023/12/20 07:33:39;;;;;;;25.13;7.55;;;;;;;4.38;100.00;100069.34;10486873;28;20044;-78
2023/12/20 07:38:44;;;;;;;14.10;5.32;;;;;;;4.13;100.00;100073.47;10483988;28;20143;-80
2023/12/20 07:43:48;;;;;;;25.27;6.78;;;;;;;4.61;100.00;100089.25;10490104;28;20040;-78
2023/12/20 07:48:52;;;;;;;19.40;5.10;;;;;;;4.24;100.00;100079.97;10493252;28;20052;-80
2023/12/20 07:53:55;;;;;;;22.05;5.63;;;;;;;4.21;100.00;100088.13;10501841;28;20048;-79
2023/12/20 07:58:59;;;;;;;19.13;6.07;;;;;;;4.16;100.00;100072.44;10493539;28;20048;-78
2023/12/20 08:04:03;;;;;;;22.05;5.47;;;;;;;4.35;100.00;100069.53;10503559;28;20092;-79
2023/12/20 08:09:06;;;;;;;23.20;5.20;;;;;;;4.11;100.00;100063.88;10509249;28;20044;-79
2023/12/20 08:14:10;;;;;;;23.15;4.68;;;;;;;4.38;100.00;100067.53;10490566;28;20124;-79
2023/12/20 08:19:13;;;;;;;19.73;4.57;;;;;;;4.28;100.00;100068.19;10479873;28;20045;-80
2023/12/20 08:24:16;;;;;;;17.00;4.18;;;;;;;4.19;100.00;100101.50;10467203;28;20045;-79
2023/12/20 08:29:21;;;;;;;11.07;3.17;;;;;;;4.13;100.00;100080.59;10481710;28;20131;-78
2023/12/20 08:34:24;;;;;;;16.52;5.03;;;;;;;4.16;100.00;100080.41;10494451;28;20041;-79
2023/12/20 08:39:29;;;;;;;19.00;3.70;;;;;;;4.18;100.00;100066.09;10501082;28;20117;-76
2023/12/20 08:44:34;;;;;;;16.58;3.92;;;;;;;4.52;100.00;100071.19;10473483;28;20120;-80
2023/12/20 08:49:37;;;;;;;12.50;3.83;;;;;;;4.09;100.00;100066.66;10492048;28;20106;-79
2023/12/20 08:54:40;;;;;;;16.15;4.50;;;;;;;4.17;100.00;100058.22;10528621;28;20032;-76
2023/12/20 08:59:47;;;;;;;12.93;4.60;;;;;;;4.11;100.00;100043.50;10497673;28;20048;-79
2023/12/20 09:04:50;;;;;;;7.88;3.75;;;;;;;4.16;100.00;100052.03;10488278;28;20048;-79
2023/12/20 09:09:53;;;;;;;20.15;5.35;;;;;;;4.26;100.00;100027.56;10471111;28;20061;-78
2023/12/20 09:14:58;;;;;;;23.85;4.47;;;;;;;4.06;100.00;100047.34;10494151;28;20048;-80
2023/12/20 09:20:02;;;;;;;20.05;4.38;;;;;;;4.15;100.00;100065.44;10498663;28;20113;-78
2023/12/20 09:25:06;;;;;;;19.02;7.13;;;;;;;4.37;100.00;100019.78;10498406;28;20040;-78
2023/12/20 09:30:11;;;;;;;19.75;6.25;;;;;;;4.21;100.00;100035.81;10493531;28;20503;-79
2023/12/20 09:35:14;;;;;;;20.85;5.10;;;;;;;4.32;100.00;99998.78;10483686;28;20504;-79
2023/12/20 09:40:19;;;;;;;19.75;5.43;;;;;;;4.33;100.00;99975.69;10472087;28;20466;-79
2023/12/20 09:45:25;;;;;;;22.98;6.47;;;;;;;4.40;100.00;100006.31;10480595;28;20924;-79
2023/12/20 09:50:30;;;;;;;15.10;5.95;;;;;;;4.47;100.00;99989.03;10493018;28;20044;-79
2023/12/20 09:55:34;;;;;;;13.00;4.85;;;;;;;4.38;100.00;100010.84;10488350;28;20128;-80
2023/12/20 10:00:38;;;;;;;19.77;5.15;;;;;;;4.49;100.00;99988.91;10480167;28;20040;-79
2023/12/20 10:05:44;;;;;;;19.17;6.25;;;;;;;4.46;100.00;99989.13;10481003;28;20415;-80
2023/12/20 10:10:47;;;;;;;19.52;5.57;;;;;;;4.78;100.00;99976.47;10465759;28;20044;-80
2023/12/20 10:15:52;;;;;;;25.77;5.47;;;;;;;4.70;100.00;99994.72;10480163;28;20053;-79
2023/12/20 10:20:55;;;;;;;23.15;6.55;;;;;;;4.55;100.00;100007.16;10494483;28;20037;-79
2023/12/20 10:25:59;;;;;;;20.77;5.78;;;;;;;4.37;100.00;99961.28;10503008;28;20071;-77
2023/12/20 10:31:04;;;;;;;15.65;6.03;;;;;;;4.40;100.00;99963.75;10495340;28;20100;-79
2023/12/20 10:36:08;;;;;;;16.42;6.15;;;;;;;4.06;100.00;99959.63;10481604;28;20052;-79
2023/12/20 10:41:12;;;;;;;17.42;6.18;;;;;;;4.51;100.00;99969.25;10469934;28;20037;-79
2023/12/20 10:46:17;;;;;;;15.80;6.15;;;;;;;4.41;100.00;99962.78;10473286;28;20408;-77
2023/12/20 10:51:21;;;;;;;18.40;4.63;;;;;;;4.16;100.00;99961.63;10480443;28;20049;-80
2023/12/20 10:56:24;;;;;;;15.10;5.18;;;;;;;4.46;100.00;99955.38;10502614;28;20049;-79
2023/12/20 11:01:31;;;;;;;10.65;3.03;;;;;;;4.31;100.00;99964.34;10495315;28;20040;-79
2023/12/20 11:06:44;;;;;;;9.13;2.95;;;;;;;4.27;100.00;99952.16;10509728;28;20060;-76
2023/12/20 11:11:57;;;;;;;;;;;;;;;4.64;100.00;99945.41;10479065;28;20041;-80
2023/12/20 11:17:11;;;;;;;11.48;4.28;;;;;;;4.20;100.00;99953.47;10485583;28;20347;-79
2023/12/20 11:22:15;;;;;;;12.05;4.03;;;;;;;4.52;100.00;99956.81;10500309;28;20040;-78
2023/12/20 11:27:19;;;;;;;13.10;4.40;;;;;;;4.74;100.00;99951.81;10515642;28;20048;-79
2023/12/20 11:32:35;;;;;;;11.68;4.25;;;;;;;4.50;100.00;99948.06;10502064;28;20047;-79
2023/12/20 11:37:42;;;;;;;17.50;4.72;;;;;;;4.73;100.00;99915.53;10498450;28;20052;-79
2023/12/20 11:42:49;;;;;;;10.10;3.70;;;;;;;4.82;100.00;99919.41;10492666;28;20048;-78
2023/12/20 11:47:54;;;;;;;11.48;4.15;;;;;;;4.73;100.00;99914.69;10499181;28;20414;-78
2023/12/20 11:52:58;;;;;;;14.43;3.25;;;;;;;4.74;100.00;99927.88;10497226;28;20075;-79
2023/12/20 11:58:00;;;;;;;12.32;3.05;;;;;;;5.09;100.00;99910.63;10490056;28;20048;-80
2023/12/20 12:03:05;;;;;;;11.13;3.35;;;;;;;4.72;100.00;99895.22;10500815;28;20090;-80
2023/12/20 12:08:08;;;;;;;14.80;3.95;;;;;;;4.88;100.00;99904.84;10485175;28;20049;-79
2023/12/20 12:13:14;;;;;;;25.05;5.85;;;;;;;4.72;100.00;99900.53;10495808;28;20037;-80
2023/12/20 12:18:19;;;;;;;13.27;3.30;;;;;;;5.04;100.00;99901.13;10497220;28;20071;-79
2023/12/20 12:23:24;;;;;;;9.40;2.22;;;;;;;4.68;100.00;99908.81;10499631;28;20087;-80
2023/12/20 12:28:29;;;;;;;11.60;3.17;;;;;;;4.88;100.00;99896.88;10490508;28;20056;-79
2023/12/20 12:33:33;;;;;;;10.32;3.05;;;;;;;5.22;100.00;99898.22;10500269;28;20455;-79
2023/12/20 12:38:36;;;;;;;6.90;2.53;;;;;;;4.76;100.00;99890.53;10487746;28;20052;-79
2023/12/20 12:43:40;;;;;;;11.75;3.17;;;;;;;5.35;100.00;99885.78;10474886;28;20045;-77
2023/12/20 12:48:45;;;;;;;13.60;3.17;;;;;;;5.20;100.00;99897.47;10486218;28;20132;-79
2023/12/20 12:53:49;;;;;;;15.20;4.18;;;;;;;5.09;100.00;99907.97;10486711;28;20041;-78
2023/12/20 12:58:52;;;;;;;14.77;3.97;;;;;;;4.92;100.00;99915.22;10472740;28;20051;-80
2023/12/20 13:03:56;;;;;;;16.10;2.95;;;;;;;4.72;100.00;99929.81;10494244;28;20047;-83
2023/12/20 13:08:59;;;;;;;9.93;1.92;;;;;;;4.35;100.00;99931.25;10488257;28;20053;-79
2023/12/20 13:14:03;;;;;;;3.13;1.65;;;;;;;3.72;100.00;99933.28;10474833;28;20047;-81
2023/12/20 13:19:08;;;;;;;5.95;1.40;;;;;;;3.53;100.00;99919.41;10500603;28;20029;-80
2023/12/20 13:24:11;;;;;;;2.10;1.17;;;;;;;3.61;100.00;99919.81;10504477;28;20123;-81
2023/12/20 13:29:14;;;;;;;5.57;1.02;;;;;;;3.72;100.00;99893.44;10504264;28;20132;-82
2023/12/20 13:34:19;;;;;;;4.03;0.95;;;;;;;4.00;100.00;99882.94;10486427;28;20051;-79
2023/12/20 13:39:22;;;;;;;6.18;1.95;;;;;;;3.92;100.00;99889.59;10483423;28;20096;-80
2023/12/20 13:44:25;;;;;;;5.85;1.60;;;;;;;4.09;100.00;99901.84;10495299;28;20037;-81
2023/12/20 13:49:30;;;;;;;9.52;1.80;;;;;;;3.90;100.00;99890.63;10475386;28;20080;-81
2023/12/20 13:54:32;;;;;;;11.18;1.60;;;;;;;3.86;100.00;99884.63;10489602;28;20040;-80
2023/12/20 13:59:36;;;;;;;6.85;1.73;;;;;;;3.70;100.00;99894.47;10502767;28;20052;-81
2023/12/20 14:04:40;;;;;;;12.88;2.33;;;;;;;3.65;100.00;99883.31;10497137;28;20127;-79
2023/12/20 14:09:46;;;;;;;8.75;2.80;;;;;;;3.82;100.00;99884.94;10469395;28;20063;-81
2023/12/20 14:14:49;;;;;;;11.48;1.77;;;;;;;3.78;100.00;99900.19;10501133;28;20044;-79
2023/12/20 14:19:54;;;;;;;6.90;1.48;;;;;;;4.10;100.00;99889.41;10495925;28;20098;-80
2023/12/20 14:24:58;;;;;;;5.85;1.65;;;;;;;3.70;100.00;99882.09;10488839;28;20047;-80
2023/12/20 14:30:01;;;;;;;8.00;0.90;;;;;;;3.78;100.00;99884.25;10465884;28;20060;-80
2023/12/20 14:35:06;;;;;;;6.43;1.33;;;;;;;3.74;100.00;99888.06;10482057;28;20044;-81
2023/12/20 14:40:14;;;;;;;7.00;1.50;;;;;;;3.79;100.00;99890.44;10490223;28;20477;-80
2023/12/20 14:45:19;;;;;;;9.23;1.55;;;;;;;4.00;100.00;99889.09;10500214;28;20068;-81
2023/12/20 14:50:23;;;;;;;16.02;2.03;;;;;;;3.79;100.00;99890.44;10477426;28;20482;-81
2023/12/20 14:55:27;;;;;;;8.80;1.48;;;;;;;4.07;100.00;99890.44;10489896;28;20041;-80
2023/12/20 15:00:30;;;;;;;8.95;1.55;;;;;;;3.95;100.00;99896.53;10503840;28;20060;-82
2023/12/20 15:05:35;;;;;;;2.85;1.33;;;;;;;3.78;100.00;99878.94;10477822;28;20072;-80
2023/12/20 15:10:38;;;;;;;8.88;1.27;;;;;;;3.58;100.00;99882.81;10468600;28;20046;-80
2023/12/20 15:15:41;;;;;;;14.02;2.22;;;;;;;4.04;100.00;99882.66;10474284;28;20228;-81
2023/12/20 15:20:50;;;;;;;11.90;2.25;;;;;;;3.70;100.00;99879.44;10473527;28;20044;-81
2023/12/20 15:25:53;;;;;;;10.55;1.42;;;;;;;4.15;100.00;99876.69;10482910;28;20320;-81
2023/12/20 15:30:56;;;;;;;4.78;1.38;;;;;;;3.94;100.00;99881.50;10466735;28;20053;-79
2023/12/20 15:36:01;;;;;;;9.45;1.80;;;;;;;4.23;100.00;99879.72;10487483;28;20053;-82
2023/12/20 15:41:04;;;;;;;9.60;2.47;;;;;;;4.02;100.00;99873.91;10481708;28;20047;-81
2023/12/20 15:46:07;;;;;;;7.00;1.38;;;;;;;4.17;100.00;99880.97;10478978;28;20041;-81
2023/12/20 15:51:11;;;;;;;9.90;2.10;;;;;;;3.85;100.00;99871.47;10457679;28;20485;-81
2023/12/20 15:56:14;;;;;;;8.25;2.35;;;;;;;4.15;100.00;99866.91;10489039;28;20041;-80
2023/12/20 16:01:17;;;;;;;5.75;2.25;;;;;;;3.92;100.00;99848.84;10480298;28;20049;-82
2023/12/20 16:06:22;;;;;;;10.25;1.63;;;;;;;3.84;100.00;99837.84;10462747;28;20044;-83
2023/12/20 16:11:25;;;;;;;6.20;1.65;;;;;;;3.95;100.00;99840.72;10492538;28;20104;-81
2023/12/20 16:16:28;;;;;;;5.85;1.95;;;;;;;3.98;100.00;99829.91;10479238;28;20044;-82
2023/12/20 16:21:32;;;;;;;9.68;2.15;;;;;;;4.02;100.00;99823.44;10487033;28;20041;-83
2023/12/20 16:26:36;;;;;;;9.05;2.15;;;;;;;3.84;100.00;99837.84;10461883;28;20041;-82
2023/12/20 16:31:39;;;;;;;7.47;2.25;;;;;;;4.08;100.00;99825.69;10486651;28;20056;-80
2023/12/20 16:36:54;;;;;;;4.63;1.95;;;;;;;3.92;100.00;99828.47;10482832;28;20071;-80
2023/12/20 16:41:57;;;;;;;8.43;3.03;;;;;;;4.02;100.00;99827.91;10491042;28;20059;-80
2023/12/20 16:47:00;;;;;;;7.03;2.92;;;;;;;4.24;100.00;99822.06;10478299;28;20052;-79
2023/12/20 16:52:06;;;;;;;8.88;3.00;;;;;;;3.92;100.00;99806.34;10491473;28;20124;-81
2023/12/20 16:57:09;;;;;;;14.98;4.15;;;;;;;4.18;100.00;99812.69;10493457;28;20033;-81
2023/12/20 17:02:12;;;;;;;9.70;5.03;;;;;;;4.10;100.00;99826.47;10471009;28;20053;-81
2023/12/20 17:07:17;;;;;;;15.18;6.60;;;;;;;4.17;100.00;99818.97;10486534;28;20037;-81
2023/12/20 17:12:20;;;;;;;12.88;5.72;;;;;;;4.52;100.00;99821.16;10489658;28;20040;-80
2023/12/20 17:17:23;;;;;;;16.45;6.38;;;;;;;4.57;100.00;99809.25;10469014;28;20059;-80
2023/12/20 17:22:27;;;;;;;17.35;6.65;;;;;;;4.56;100.00;99809.38;10461808;28;20041;-80
2023/12/20 17:27:30;;;;;;;11.98;5.32;;;;;;;4.76;100.00;99800.91;10490588;28;20033;-80
2023/12/20 17:32:36;;;;;;;15.70;6.97;;;;;;;4.68;100.00;99805.03;10471861;28;20063;-80
2023/12/20 17:37:41;;;;;;;23.17;7.65;;;;;;;5.08;100.00;99792.63;10485079;28;20041;-82
2023/12/20 17:42:45;;;;;;;22.00;8.00;;;;;;;4.95;100.00;99800.56;10484655;28;20076;-81
2023/12/20 17:47:48;;;;;;;20.77;9.35;;;;;;;4.87;100.00;99797.56;10495533;28;20053;-77
2023/12/20 17:52:55;;;;;;;16.52;6.05;;;;;;;4.77;100.00;99791.13;10484470;28;20033;-79
2023/12/20 17:57:58;;;;;;;25.63;10.18;;;;;;;4.86;100.00;99793.19;10488598;28;20160;-78
2023/12/20 18:03:01;;;;;;;16.67;8.13;;;;;;;4.69;100.00;99781.00;10478939;28;20045;-80
2023/12/20 18:08:06;;;;;;;21.70;8.50;;;;;;;4.88;100.00;99761.13;10475659;28;20052;-80
2023/12/20 18:13:09;;;;;;;29.00;11.45;;;;;;;4.86;100.00;99774.56;10485679;28;20072;-80
2023/12/20 18:18:12;;;;;;;27.25;12.63;;;;;;;4.83;100.00;99761.47;10470522;28;20053;-80
2023/12/20 18:23:17;;;;;;;30.65;13.25;;;;;;;4.77;100.00;99736.13;10474614;28;20045;-80
2023/12/20 18:28:20;;;;;;;40.70;16.30;;;;;;;4.81;100.00;99742.09;10449162;28;20049;-80
2023/12/20 18:33:23;;;;;;;24.77;9.85;;;;;;;4.86;100.00;99723.16;10477698;28;20118;-81
2023/12/20 18:38:30;;;;;;;31.25;12.35;;;;;;;4.98;100.00;99725.81;10470235;28;20072;-80
2023/12/20 18:43:33;;;;;;;27.65;12.88;;;;;;;4.69;100.00;99718.94;10485465;28;20511;-79
2023/12/20 18:48:37;;;;;;;28.63;13.38;;;;;;;4.74;100.00;99707.03;10477716;28;20104;-80
2023/12/20 18:53:42;;;;;;;30.15;11.70;;;;;;;4.77;100.00;99713.97;10479687;28;20127;-80
2023/12/20 18:58:46;;;;;;;18.02;9.52;;;;;;;4.90;100.00;99687.38;10489283;28;20068;-78
2023/12/20 19:03:49;;;;;;;26.20;12.10;;;;;;;4.51;100.00;99682.00;10475335;28;20569;-80
2023/12/20 19:08:54;;;;;;;23.42;9.68;;;;;;;4.54;100.00;99671.16;10478177;28;20041;-81
2023/12/20 19:13:57;;;;;;;23.35;12.98;;;;;;;4.66;100.00;99663.28;10478416;28;20049;-81
2023/12/20 19:19:00;;;;;;;23.67;11.00;;;;;;;5.02;100.00;99659.97;10473113;28;20148;-80
2023/12/20 19:24:05;;;;;;;23.83;13.52;;;;;;;4.92;100.00;99658.84;10467355;28;20049;-80
2023/12/20 19:29:08;;;;;;;28.95;13.48;;;;;;;4.83;100.00;99650.56;10480675;28;20044;-79
2023/12/20 19:34:11;;;;;;;29.50;13.02;;;;;;;4.68;100.00;99648.09;10485081;28;20068;-81
2023/12/20 19:39:15;;;;;;;26.10;13.02;;;;;;;4.52;100.00;99640.28;10473021;28;20593;-79
2023/12/20 19:44:19;;;;;;;33.83;15.00;;;;;;;4.66;100.00;99624.22;10463770;28;20041;-81
2023/12/20 19:49:22;;;;;;;32.30;14.13;;;;;;;4.54;100.00;99604.66;10476268;28;20450;-81
2023/12/20 19:54:26;;;;;;;38.92;19.23;;;;;;;4.96;100.00;99605.28;10476766;28;20032;-81
2023/12/20 19:59:29;;;;;;;34.50;19.48;;;;;;;4.79;100.00;99614.44;10481776;28;20100;-80
2023/12/20 20:04:32;;;;;;;41.50;21.67;;;;;;;4.87;100.00;99586.47;10511240;28;20088;-80
2023/12/20 20:09:37;;;;;;;31.70;16.50;;;;;;;4.82;100.00;99568.16;10481460;28;20037;-82
2023/12/20 20:14:40;;;;;;;29.67;16.17;;;;;;;4.80;100.00;99554.09;10497019;28;20047;-80
2023/12/20 20:19:43;;;;;;;36.45;16.75;;;;;;;4.72;100.00;99567.97;10470066;28;20080;-80
2023/12/20 20:24:47;;;;;;;35.78;19.00;;;;;;;4.94;100.00;99553.16;10478199;28;20055;-82
2023/12/20 20:29:50;;;;;;;36.58;19.30;;;;;;;5.01;100.00;99517.16;10470920;28;20045;-82
2023/12/20 20:34:53;;;;;;;32.55;17.05;;;;;;;4.87;100.00;99523.44;10463225;28;20507;-81
2023/12/20 20:39:59;;;;;;;32.38;13.60;;;;;;;4.98;100.00;99520.03;10482303;28;20443;-80
2023/12/20 20:45:03;;;;;;;30.27;16.23;;;;;;;5.00;100.00;99492.38;10486312;28;20145;-79
2023/12/20 20:50:07;;;;;;;24.48;14.68;;;;;;;5.17;100.00;99466.34;10477768;28;20056;-78
2023/12/20 20:55:12;;;;;;;22.35;11.93;;;;;;;4.95;100.00;99491.81;10469493;28;20055;-81
2023/12/20 21:00:16;;;;;;;25.05;15.00;;;;;;;5.00;100.00;99487.03;10480945;28;20044;-82
2023/12/20 21:05:19;;;;;;;18.52;12.15;;;;;;;4.96;100.00;99469.56;10461754;28;20060;-80
2023/12/20 21:10:23;;;;;;;31.55;20.75;;;;;;;5.18;100.00;99460.88;10477469;28;20087;-81
2023/12/20 21:15:26;;;;;;;35.53;15.30;;;;;;;5.48;100.00;99456.91;10436741;28;20067;-81
2023/12/20 21:20:29;;;;;;;24.25;14.82;;;;;;;5.01;100.00;99451.47;10480566;28;20119;-80
2023/12/20 21:25:33;;;;;;;23.50;13.57;;;;;;;5.24;100.00;99447.16;10473771;28;20041;-80
2023/12/20 21:30:38;;;;;;;18.20;11.25;;;;;;;5.05;100.00;99442.31;10482340;28;20051;-83
2023/12/20 21:35:41;;;;;;;14.43;8.63;;;;;;;4.94;100.00;99433.41;10460982;28;20049;-82
2023/12/20 21:40:47;;;;;;;18.08;10.80;;;;;;;5.00;100.00;99417.84;10474233;28;20761;-81
2023/12/20 21:45:50;;;;;;;10.95;7.32;;;;;;;5.05;100.00;99405.06;10490101;28;20045;-80
2023/12/20 21:50:53;;;;;;;11.80;7.78;;;;;;;5.14;100.00;99381.38;10490282;28;20238;-80
2023/12/20 21:55:57;;;;;;;12.95;8.98;;;;;;;5.16;100.00;99367.00;10478996;28;20037;-80
2023/12/20 22:01:00;;;;;;;14.68;8.10;;;;;;;5.15;100.00;99362.59;10471519;28;20040;-78
2023/12/20 22:06:08;;;;;;;9.07;6.43;;;;;;;5.26;100.00;99359.16;10474524;28;20040;-80
2023/12/20 22:11:13;;;;;;;10.27;6.40;;;;;;;5.18;100.00;99369.53;10484010;28;20044;-79
2023/12/20 22:16:16;;;;;;;10.10;6.70;;;;;;;5.23;100.00;99367.38;10474470;28;20056;-78
2023/12/20 22:21:19;;;;;;;9.85;6.65;;;;;;;5.12;100.00;99384.13;10500634;28;20480;-81
2023/12/20 22:26:23;;;;;;;10.27;7.28;;;;;;;5.44;100.00;99386.22;10493928;28;20047;-80
2023/12/20 22:31:26;;;;;;;10.73;7.13;;;;;;;5.47;100.00;99376.16;10487252;28;20059;-83
2023/12/20 22:36:29;;;;;;;14.48;8.75;;;;;;;5.54;100.00;99371.25;10455940;28;20076;-82
2023/12/20 22:41:34;;;;;;;9.52;6.63;;;;;;;5.23;100.00;99367.38;10461758;28;20076;-79
2023/12/20 22:46:37;;;;;;;10.52;7.40;;;;;;;5.33;100.00;99347.09;10474604;28;20650;-82
2023/12/20 22:51:40;;;;;;;7.85;4.75;;;;;;;5.41;100.00;99358.00;10478082;28;20049;-82
2023/12/20 22:56:45;;;;;;;9.25;5.05;;;;;;;5.39;100.00;99351.94;10492310;28;20072;-82
2023/12/20 23:01:48;;;;;;;11.43;7.25;;;;;;;5.43;100.00;99344.56;10475602;28;20139;-81
2023/12/20 23:06:51;;;;;;;5.93;4.30;;;;;;;5.48;100.00;99337.06;10479391;28;20060;-80
2023/12/20 23:11:55;;;;;;;7.10;3.90;;;;;;;5.60;100.00;99329.97;10479294;28;20052;-80